FQLC

Lichinga Airport

Lichinga, Mozambique
TAF FQLC 181600Z 1818/1918 09012KT 9999 SCT015 BECMG 1906/1908 16010KT BECMG 1912/1914 25012KT TX22/1913Z TN13/1903Z
Issued Valid From Valid To
Jun-18 @ 16:00 UTC
(7 hours ago)
Jun-18 @ 18:00 UTC
(5 hours ago)
Jun-19 @ 18:00 UTC
(in 19 hours)
Jun-18 @ 18:00 to Jun-19 @ 06:00
TAF FQLC 181600Z 1818/1918 09012KT 9999 SCT015
Wind Visibility Clouds
90° at 12 knots 10,000+ meters
  • Scattered at 1,500' AGL
Becoming Jun-19 @ 06:00 to Jun-19 @ 12:00
BECMG 1906/1908 16010KT
Wind Visibility Clouds
160° at 10 knots 10,000+ meters
  • Scattered at 1,500' AGL
Becoming Jun-19 @ 12:00 to Jun-19 @ 18:00
BECMG 1912/1914 25012KT TX22/1913Z TN13/1903Z
Wind Visibility Clouds
250° at 12 knots 10,000+ meters
  • Scattered at 1,500' AGL
TAF FQLC 181600Z 1818/1918 09012KT 9999 SCT015 BECMG 1906/1908 16010KT BECMG 1912/1914 25012KT TX22/1913Z TN13/1903Z
Issued Jun-18 @ 16:00 UTC
(7 hours ago)
Valid From Jun-18 @ 18:00 UTC
(5 hours ago)
Valid To Jun-19 @ 18:00 UTC
(in 19 hours)
Jun-18 @ 18:00 - Jun-19 @ 06:00
Wind Visibility
90° at 12 knots 10,000+ meters
Clouds
  • Scattered at 1,500' AGL
Becoming Jun-19 @ 06:00 - Jun-19 @ 12:00
Wind Visibility
160° at 10 knots 10,000+ meters
Clouds
  • Scattered at 1,500' AGL
Becoming Jun-19 @ 12:00 - Jun-19 @ 18:00
Wind Visibility
250° at 12 knots 10,000+ meters
Clouds
  • Scattered at 1,500' AGL